Lakeville, MN

4:44 AM CST on December 09, 2016 (GMT -0600)
Airlake

Weather History for KLVN - April, 2013

Change the Weather History Date:

Thursday, April 25, 2013

  Actual Average Record
Temperature  
Mean Temperature 39 °F -  
Max Temperature 48 °F 65 °F 90 °F (1962)
Min Temperature 30 °F 40 °F 28 °F (1958)
Degree Days  
Heating Degree Days 26    
Moisture  
Dew Point 29 °F    
Average Humidity 72    
Maximum Humidity 93    
Minimum Humidity 43    
Precipitation  
Precipitation 0.00 in - - ()
Sea Level Pressure  
Sea Level Pressure 30.12 in    
Wind  
Wind Speed 10 mph (WSW)    
Max Wind Speed 16 mph    
Max Gust Speed 22 mph    
Visibility 10 miles    
Events Snow    
Averages and records for this station are not official NWS values.
T = Trace of Precipitation, MM = Missing Value Source: NWS Daily Summary

Daily Weather History Graph

Daily Weather History Graph

Search for Another Location

Airport or City:

Trip Planner

Search our weather history database for the weather conditions in past years. The results will help you decide how hot, cold, wet, or windy it might be!

Date:

Astronomy

Apr. 25, 2013 Rise Set
Actual Time 6:11 AM CDT 8:10 PM CDT
Civil Twilight 5:40 AM CDT 8:42 PM CDT
Nautical Twilight 5:01 AM CDT 9:20 PM CDT
Astronomical Twilight 4:19 AM CDT 10:03 PM CDT
Moon 8:25 PM CDT (4/25) 5:55 AM CDT (4/25)
Length of Visible Light 15h 01m
Length of Day
13h 58m
Full, 100% of the Moon is Illuminated
Apr 25
Full
Apr 25
Full
May 2
Last Quarter
May 9
New
May 17
First Quarter

Hourly Weather History & Observations

Time (CDT) Temp. Windchill Dew Point Humidity Pressure Visibility Wind Dir Wind Speed Gust Speed Precip Events Conditions
12:02 AM 33.8 °F 25.3 °F 30.2 °F 87% 29.99 in 10.0 mi WNW 11.5 mph - N/A   Mostly Cloudy
12:22 AM 33.8 °F 25.8 °F 30.2 °F 87% 29.99 in 10.0 mi West 10.4 mph - N/A   Overcast
12:42 AM 33.8 °F 24.8 °F 30.2 °F 87% 29.99 in 10.0 mi West 12.7 mph 19.6 mph N/A   Overcast
1:01 AM 33.8 °F 24.8 °F 30.2 °F 87% 30.00 in 10.0 mi West 12.7 mph 21.9 mph N/A   Overcast
1:22 AM 32.0 °F 21.2 °F 30.2 °F 93% 30.01 in 5.0 mi West 16.1 mph - N/A Snow Light Snow
1:42 AM 32.0 °F 22.5 °F 30.2 °F 93% 30.02 in 4.0 mi West 12.7 mph - N/A Snow Light Snow
2:02 AM 32.0 °F 22.5 °F 30.2 °F 93% 30.02 in 5.0 mi West 12.7 mph - N/A Snow Light Snow
2:22 AM 32.0 °F 22.1 °F 30.2 °F 93% 30.02 in 7.0 mi WNW 13.8 mph 18.4 mph N/A Snow Light Snow
2:41 AM 32.0 °F 22.1 °F 28.4 °F 87% 30.03 in 10.0 mi WNW 13.8 mph - N/A Snow Light Snow
3:02 AM 32.0 °F 22.5 °F 28.4 °F 87% 30.03 in 7.0 mi WNW 12.7 mph 18.4 mph N/A Snow Light Snow
3:22 AM 32.0 °F 22.1 °F 28.4 °F 87% 30.04 in 10.0 mi West 13.8 mph - N/A   Overcast
3:42 AM 32.0 °F 23.0 °F 28.4 °F 87% 30.05 in 10.0 mi West 11.5 mph - N/A   Overcast
4:02 AM 30.2 °F 20.2 °F 28.4 °F 93% 30.06 in 10.0 mi West 12.7 mph - N/A   Overcast
4:22 AM 30.2 °F 20.8 °F 28.4 °F 93% 30.07 in 10.0 mi West 11.5 mph 16.1 mph N/A   Overcast
4:42 AM 30.2 °F 21.3 °F 28.4 °F 93% 30.07 in 10.0 mi WNW 10.4 mph 13.8 mph N/A   Overcast
5:02 AM 30.2 °F 20.8 °F 28.4 °F 93% 30.08 in 10.0 mi West 11.5 mph 16.1 mph N/A   Overcast
5:22 AM 30.2 °F 21.3 °F 28.4 °F 93% 30.09 in 10.0 mi West 10.4 mph - N/A   Overcast
5:42 AM 30.2 °F 20.8 °F 28.4 °F 93% 30.10 in 10.0 mi West 11.5 mph - N/A   Overcast
6:02 AM 30.2 °F 21.9 °F 26.6 °F 86% 30.11 in 10.0 mi West 9.2 mph - N/A   Overcast
6:22 AM 30.2 °F 21.9 °F 26.6 °F 86% 30.12 in 10.0 mi West 9.2 mph - N/A   Overcast
6:42 AM 30.2 °F 21.3 °F 26.6 °F 86% 30.12 in 10.0 mi West 10.4 mph - N/A   Overcast
7:02 AM 30.2 °F 21.9 °F 26.6 °F 86% 30.14 in 10.0 mi West 9.2 mph - N/A   Overcast
7:22 AM 30.2 °F 22.6 °F 26.6 °F 86% 30.15 in 10.0 mi WSW 8.1 mph - N/A   Overcast
7:42 AM 30.2 °F 21.9 °F 26.6 °F 86% 30.16 in 10.0 mi West 9.2 mph - N/A   Overcast
8:02 AM 30.2 °F 22.6 °F 28.4 °F 93% 30.17 in 10.0 mi West 8.1 mph - N/A   Overcast
8:22 AM 32.0 °F 23.6 °F 28.4 °F 87% 30.18 in 10.0 mi West 10.4 mph - N/A   Overcast
8:42 AM 32.0 °F 24.2 °F 28.4 °F 87% 30.18 in 10.0 mi West 9.2 mph - N/A   Overcast
9:01 AM 33.8 °F 27.0 °F 28.4 °F 81% 30.19 in 10.0 mi West 8.1 mph - N/A   Overcast
9:22 AM 33.8 °F 28.6 °F 28.4 °F 81% 30.19 in 10.0 mi WSW 5.8 mph - N/A   Overcast
9:42 AM 33.8 °F 27.7 °F 28.4 °F 81% 30.19 in 10.0 mi WSW 6.9 mph - N/A   Overcast
10:02 AM 33.8 °F 28.6 °F 28.4 °F 81% 30.20 in 10.0 mi WSW 5.8 mph - N/A   Overcast
10:22 AM 35.6 °F 29.9 °F 28.4 °F 75% 30.21 in 10.0 mi West 6.9 mph - N/A   Overcast
10:41 AM 35.6 °F 29.2 °F 28.4 °F 75% 30.22 in 10.0 mi WSW 8.1 mph - N/A   Overcast
11:02 AM 35.6 °F 28.6 °F 28.4 °F 75% 30.21 in 10.0 mi West 9.2 mph - N/A   Overcast
11:22 AM 37.4 °F 31.4 °F 30.2 °F 75% 30.20 in 10.0 mi SW 8.1 mph - N/A   Mostly Cloudy
11:42 AM 39.2 °F 33.6 °F 30.2 °F 70% 30.20 in 10.0 mi WSW 8.1 mph - N/A   Mostly Cloudy
12:02 PM 39.2 °F 34.2 °F 30.2 °F 70% 30.20 in 10.0 mi WNW 6.9 mph - N/A   Mostly Cloudy
12:21 PM 39.2 °F 33.0 °F 28.4 °F 65% 30.20 in 10.0 mi WSW 9.2 mph - N/A   Scattered Clouds
12:42 PM 41.0 °F 36.4 °F 28.4 °F 61% 30.19 in 10.0 mi West 6.9 mph - N/A   Scattered Clouds
1:02 PM 42.8 °F 38.0 °F 30.2 °F 61% 30.19 in 10.0 mi WSW 8.1 mph - N/A   Scattered Clouds
1:22 PM 42.8 °F 38.6 °F 30.2 °F 61% 30.19 in 10.0 mi WSW 6.9 mph - N/A   Scattered Clouds
1:42 PM 42.8 °F 40.1 °F 30.2 °F 61% 30.18 in 10.0 mi South 4.6 mph - N/A   Scattered Clouds
2:02 PM 42.8 °F 39.3 °F 30.2 °F 61% 30.18 in 10.0 mi WSW 5.8 mph - N/A   Scattered Clouds
2:22 PM 44.6 °F 41.4 °F 28.4 °F 53% 30.18 in 10.0 mi SW 5.8 mph - N/A   Scattered Clouds
2:41 PM 44.6 °F 42.2 °F 28.4 °F 53% 30.17 in 10.0 mi SSW 4.6 mph - N/A   Clear
3:02 PM 46.4 °F 43.5 °F 28.4 °F 50% 30.17 in 10.0 mi SSW 5.8 mph - N/A   Clear
3:22 PM 46.4 °F 42.9 °F 26.6 °F 46% 30.17 in 10.0 mi SW 6.9 mph - N/A   Clear
3:42 PM 46.4 °F 41.9 °F 24.8 °F 43% 30.16 in 10.0 mi SW 9.2 mph - N/A   Clear
4:02 PM 46.4 °F 42.9 °F 26.6 °F 46% 30.16 in 10.0 mi SSW 6.9 mph - N/A   Clear
4:22 PM 46.4 °F 42.4 °F 26.6 °F 46% 30.16 in 10.0 mi WSW 8.1 mph 16.1 mph N/A   Clear
4:42 PM 48.2 °F - 26.6 °F 43% 30.15 in 10.0 mi South 8.1 mph - N/A   Clear
5:02 PM 48.2 °F - 26.6 °F 43% 30.14 in 10.0 mi South 4.6 mph - N/A   Clear
5:22 PM 48.2 °F - 26.6 °F 43% 30.14 in 10.0 mi WSW 4.6 mph - N/A   Clear
5:42 PM 48.2 °F - 26.6 °F 43% 30.14 in 10.0 mi SSW 4.6 mph - N/A   Clear
6:02 PM 48.2 °F - 26.6 °F 43% 30.13 in 10.0 mi Calm Calm - N/A   Clear
6:22 PM 46.4 °F 44.3 °F 26.6 °F 46% 30.14 in 10.0 mi SSE 4.6 mph - N/A   Clear
6:42 PM 48.2 °F - 28.4 °F 46% 30.13 in 10.0 mi South 6.9 mph - N/A   Scattered Clouds
7:02 PM 46.4 °F 43.5 °F 28.4 °F 50% 30.13 in 10.0 mi SSE 5.8 mph - N/A   Clear
7:22 PM 46.4 °F 44.3 °F 30.2 °F 53% 30.13 in 10.0 mi SSE 4.6 mph - N/A   Clear
7:42 PM 46.4 °F 45.2 °F 30.2 °F 53% 30.13 in 7.0 mi ESE 3.5 mph - N/A   Clear
8:02 PM 42.8 °F 41.1 °F 33.8 °F 70% 30.12 in 10.0 mi East 3.5 mph - N/A   Scattered Clouds
8:22 PM 42.8 °F 40.1 °F 33.8 °F 70% 30.13 in 10.0 mi ESE 4.6 mph - N/A   Clear
8:42 PM 42.8 °F 40.1 °F 32.0 °F 66% 30.12 in 10.0 mi ESE 4.6 mph - N/A   Clear
9:02 PM 42.8 °F 39.3 °F 32.0 °F 66% 30.12 in 10.0 mi ESE 5.8 mph - N/A   Clear
9:22 PM 42.8 °F 39.3 °F 32.0 °F 66% 30.12 in 10.0 mi ESE 5.8 mph - N/A   Clear
9:42 PM 42.8 °F 38.0 °F 32.0 °F 66% 30.11 in 10.0 mi ESE 8.1 mph - N/A   Clear
10:02 PM 42.8 °F 37.5 °F 32.0 °F 66% 30.11 in 10.0 mi ESE 9.2 mph - N/A   Clear
10:22 PM 42.8 °F 37.5 °F 32.0 °F 66% 30.11 in 10.0 mi SE 9.2 mph - N/A   Clear
10:42 PM 42.8 °F 38.0 °F 32.0 °F 66% 30.10 in 10.0 mi SE 8.1 mph - N/A   Clear
11:02 PM 41.0 °F 36.4 °F 32.0 °F 70% 30.09 in 10.0 mi SE 6.9 mph - N/A   Clear
11:21 PM 41.0 °F 37.1 °F 32.0 °F 70% 30.09 in 10.0 mi ESE 5.8 mph - N/A   Clear
11:42 PM 41.0 °F 36.4 °F 30.2 °F 65% 30.08 in 10.0 mi ESE 6.9 mph - N/A   Clear